LICR/REG METAR and TAF weather

Enter ICAO airport designator
Station Type Date Time Source
LICR METAR 2020/01/26 18:50 UTC NOAA

LICR 261850Z 35005KT CAVOK 12/06 Q1020


Station Type Date Time Source
LICR Decoded METAR 2020/01/26 18:50 UTC NOAA

Reggio Calabria, Italy (LICR) 38-04N 015-39E 21M
Jan 26, 2020 - 01:50 PM EST / 2020.01.26 1850 UTC
Wind: from the N (350 degrees) at 6 MPH (5 KT):0
Visibility: greater than 7 mile(s):0
Temperature: 53 F (12 C)
Dew Point: 42 F (6 C)
Relative Humidity: 66%
Pressure (altimeter): 30.12 in. Hg (1020 hPa)
ob: LICR 261850Z 35005KT CAVOK 12/06 Q1020
cycle: 19

Station Type Date Time Source
LICR TAF 2020/01/26 18:21 UTC NOAA

TAF LICR 261700Z 2618/2718 VRB05KT 9999 SCT030
BECMG 2708/2710 35010KT

Example: see airport list